sensor_id;sensor_type;location;lat;lon;timestamp;pressure;altitude;pressure_sealevel;temperature;humidity
9281;BME280;4679;47.966;7.958;2022-11-18T06:31:28;95776.28;;;8.60;80.20
9281;BME280;4679;47.966;7.958;2022-11-18T06:33:30;95768.34;;;8.60;79.69
9281;BME280;4679;47.966;7.958;2022-11-18T06:35:32;95769.41;;;8.59;79.68
9281;BME280;4679;47.966;7.958;2022-11-18T06:37:33;95777.06;;;8.61;80.04
9281;BME280;4679;47.966;7.958;2022-11-18T06:39:36;95781.03;;;8.63;79.61
9281;BME280;4679;47.966;7.958;2022-11-18T06:41:37;95776.81;;;8.62;79.59
9281;BME280;4679;47.966;7.958;2022-11-18T06:45:47;95786.34;;;8.68;79.50
9281;BME280;4679;47.966;7.958;2022-11-18T06:48:05;95795.06;;;8.69;79.20
9281;BME280;4679;47.966;7.958;2022-11-18T06:50:07;95793.75;;;8.66;79.30
9281;BME280;4679;47.966;7.958;2022-11-18T06:52:09;95784.75;;;8.62;79.50
9281;BME280;4679;47.966;7.958;2022-11-18T06:54:11;95793.72;;;8.61;79.28
9281;BME280;4679;47.966;7.958;2022-11-18T06:56:14;95800.09;;;8.65;79.80
9281;BME280;4679;47.966;7.958;2022-11-18T06:58:16;95801.41;;;8.68;79.02
9281;BME280;4679;47.966;7.958;2022-11-18T07:00:18;95811.44;;;8.71;79.01
9281;BME280;4679;47.966;7.958;2022-11-18T07:02:20;95810.94;;;8.69;79.14
9281;BME280;4679;47.966;7.958;2022-11-18T07:04:23;95801.41;;;8.68;79.05
9281;BME280;4679;47.966;7.958;2022-11-18T07:06:26;95809.88;;;8.70;78.79
9281;BME280;4679;47.966;7.958;2022-11-18T07:08:28;95800.88;;;8.71;78.68
9281;BME280;4679;47.966;7.958;2022-11-18T07:10:30;95823.59;;;8.72;78.75
9281;BME280;4679;47.966;7.958;2022-11-18T07:12:32;95813.81;;;8.72;78.49
9281;BME280;4679;47.966;7.958;2022-11-18T07:14:33;95815.69;;;8.72;78.65
9281;BME280;4679;47.966;7.958;2022-11-18T07:16:35;95826.25;;;8.72;78.49
9281;BME280;4679;47.966;7.958;2022-11-18T07:18:38;95818.31;;;8.72;78.77
9281;BME280;4679;47.966;7.958;2022-11-18T07:20:42;95829.94;;;8.71;78.45
9281;BME280;4679;47.966;7.958;2022-11-18T07:22:44;95831.03;;;8.70;78.76
9281;BME280;4679;47.966;7.958;2022-11-18T07:24:46;95834.47;;;8.70;78.44
9281;BME280;4679;47.966;7.958;2022-11-18T07:26:47;95834.47;;;8.70;78.86
9281;BME280;4679;47.966;7.958;2022-11-18T07:28:49;95836.03;;;8.71;78.76
9281;BME280;4679;47.966;7.958;2022-11-18T07:30:51;95839.47;;;8.72;78.70
9281;BME280;4679;47.966;7.958;2022-11-18T07:32:52;95839.75;;;8.70;78.42
9281;BME280;4679;47.966;7.958;2022-11-18T07:34:54;95854.53;;;8.71;78.55
9281;BME280;4679;47.966;7.958;2022-11-18T07:36:57;95854.31;;;8.68;78.49
9281;BME280;4679;47.966;7.958;2022-11-18T07:39:00;95854.56;;;8.66;78.29
9281;BME280;4679;47.966;7.958;2022-11-18T07:41:03;95865.94;;;8.67;78.86
9281;BME280;4679;47.966;7.958;2022-11-18T07:43:05;95865.13;;;8.66;78.93
9281;BME280;4679;47.966;7.958;2022-11-18T07:45:09;95867.25;;;8.64;78.78
9281;BME280;4679;47.966;7.958;2022-11-18T07:47:10;95863.81;;;8.64;78.88
9281;BME280;4679;47.966;7.958;2022-11-18T07:49:12;95870.94;;;8.63;79.15
9281;BME280;4679;47.966;7.958;2022-11-18T07:51:16;95864.59;;;8.64;78.68
9281;BME280;4679;47.966;7.958;2022-11-18T07:53:20;95873.31;;;8.65;79.13
9281;BME280;4679;47.966;7.958;2022-11-18T07:55:21;95874.63;;;8.62;78.38
9281;BME280;4679;47.966;7.958;2022-11-18T07:57:23;95877.81;;;8.64;78.45
9281;BME280;4679;47.966;7.958;2022-11-18T07:59:25;95882.59;;;8.67;78.35
9281;BME280;4679;47.966;7.958;2022-11-18T08:01:26;95878.91;;;8.68;78.82
9281;BME280;4679;47.966;7.958;2022-11-18T08:03:30;95876.00;;;8.70;78.21
9281;BME280;4679;47.966;7.958;2022-11-18T08:05:31;95884.72;;;8.70;79.05
9281;BME280;4679;47.966;7.958;2022-11-18T08:07:33;95887.88;;;8.72;78.88
9281;BME280;4679;47.966;7.958;2022-11-18T08:09:36;95883.13;;;8.74;78.94
9281;BME280;4679;47.966;7.958;2022-11-18T08:11:38;95896.09;;;8.76;78.37
9281;BME280;4679;47.966;7.958;2022-11-18T08:13:40;95895.81;;;8.77;78.80
9281;BME280;4679;47.966;7.958;2022-11-18T08:15:42;95894.78;;;8.78;78.57
9281;BME280;4679;47.966;7.958;2022-11-18T08:17:44;95902.44;;;8.80;78.19
9281;BME280;4679;47.966;7.958;2022-11-18T08:19:46;95905.88;;;8.80;78.52
9281;BME280;4679;47.966;7.958;2022-11-18T08:21:47;95899.28;;;8.83;78.58
9281;BME280;4679;47.966;7.958;2022-11-18T08:23:50;95907.22;;;8.83;78.68
9281;BME280;4679;47.966;7.958;2022-11-18T08:26:00;95910.09;;;8.87;78.52
9281;BME280;4679;47.966;7.958;2022-11-18T08:28:03;95916.19;;;8.87;78.66
9281;BME280;4679;47.966;7.958;2022-11-18T08:30:05;95913.53;;;8.87;78.37
9281;BME280;4679;47.966;7.958;2022-11-18T08:32:07;95913.53;;;8.87;78.18
9281;BME280;4679;47.966;7.958;2022-11-18T08:34:09;95915.13;;;8.88;78.39
9281;BME280;4679;47.966;7.958;2022-11-18T08:36:14;95921.47;;;8.87;78.34
9281;BME280;4679;47.966;7.958;2022-11-18T08:38:16;95923.88;;;8.89;78.67
9281;BME280;4679;47.966;7.958;2022-11-18T08:40:18;95923.88;;;8.89;77.97
9281;BME280;4679;47.966;7.958;2022-11-18T08:42:21;95920.44;;;8.88;78.17
9281;BME280;4679;47.966;7.958;2022-11-18T08:44:26;95931.28;;;8.87;78.35
9281;BME280;4679;47.966;7.958;2022-11-18T08:46:28;95927.56;;;8.88;78.49
9281;BME280;4679;47.966;7.958;2022-11-18T08:48:30;95924.13;;;8.87;78.20
9281;BME280;4679;47.966;7.958;2022-11-18T08:50:32;95939.19;;;8.87;78.12
9281;BME280;4679;47.966;7.958;2022-11-18T08:52:34;95937.09;;;8.89;78.33
9281;BME280;4679;47.966;7.958;2022-11-18T08:54:35;95936.31;;;8.88;78.45
9281;BME280;4679;47.966;7.958;2022-11-18T08:56:37;95943.97;;;8.90;78.52
9281;BME280;4679;47.966;7.958;2022-11-18T08:58:41;95949.53;;;8.88;78.44
9281;BME280;4679;47.966;7.958;2022-11-18T09:00:42;95943.19;;;8.89;78.47
9281;BME280;4679;47.966;7.958;2022-11-18T09:02:44;95942.91;;;8.91;78.51
9281;BME280;4679;47.966;7.958;2022-11-18T09:04:46;95946.09;;;8.93;78.06
9281;BME280;4679;47.966;7.958;2022-11-18T09:06:48;95938.97;;;8.93;78.54
9281;BME280;4679;47.966;7.958;2022-11-18T09:08:49;95945.06;;;8.94;78.14
9281;BME280;4679;47.966;7.958;2022-11-18T09:10:51;95943.47;;;8.98;78.50
9281;BME280;4679;47.966;7.958;2022-11-18T09:12:53;95938.97;;;8.98;78.08
9281;BME280;4679;47.966;7.958;2022-11-18T09:14:57;95941.09;;;9.01;78.22
9281;BME280;4679;47.966;7.958;2022-11-18T09:16:59;95948.50;;;9.04;78.38
9281;BME280;4679;47.966;7.958;2022-11-18T09:19:00;95950.88;;;9.06;77.94
9281;BME280;4679;47.966;7.958;2022-11-18T09:21:04;95951.41;;;9.03;78.64
9281;BME280;4679;47.966;7.958;2022-11-18T09:23:06;95955.91;;;9.02;78.37
9281;BME280;4679;47.966;7.958;2022-11-18T09:25:08;95952.22;;;8.98;78.12
9281;BME280;4679;47.966;7.958;2022-11-18T09:27:10;95955.38;;;8.95;78.05
9281;BME280;4679;47.966;7.958;2022-11-18T09:29:12;95965.16;;;8.95;78.72
9281;BME280;4679;47.966;7.958;2022-11-18T09:31:16;95969.38;;;8.91;78.39
9281;BME280;4679;47.966;7.958;2022-11-18T09:33:18;95965.66;;;8.87;78.77
9281;BME280;4679;47.966;7.958;2022-11-18T09:35:20;95967.78;;;8.85;78.41
9281;BME280;4679;47.966;7.958;2022-11-18T09:37:22;95982.31;;;8.82;78.68
9281;BME280;4679;47.966;7.958;2022-11-18T09:39:24;95981.25;;;8.78;78.75
9281;BME280;4679;47.966;7.958;2022-11-18T09:41:38;95984.69;;;8.78;79.23
9281;BME280;4679;47.966;7.958;2022-11-18T09:43:48;95986.00;;;8.76;78.59
9281;BME280;4679;47.966;7.958;2022-11-18T09:45:57;95989.94;;;8.73;79.19
9281;BME280;4679;47.966;7.958;2022-11-18T09:48:14;95990.75;;;8.74;78.98
9281;BME280;4679;47.966;7.958;2022-11-18T09:50:19;95995.50;;;8.72;79.11
9281;BME280;4679;47.966;7.958;2022-11-18T09:52:23;96002.63;;;8.66;78.85
9281;BME280;4679;47.966;7.958;2022-11-18T09:54:29;96016.91;;;8.65;79.23
9281;BME280;4679;47.966;7.958;2022-11-18T09:56:31;96008.16;;;8.60;79.73
9281;BME280;4679;47.966;7.958;2022-11-18T09:58:34;96015.78;;;8.56;79.97
9281;BME280;4679;47.966;7.958;2022-11-18T10:00:36;96010.75;;;8.50;80.39
9281;BME280;4679;47.966;7.958;2022-11-18T10:02:47;96009.41;;;8.47;79.86
9281;BME280;4679;47.966;7.958;2022-11-18T10:04:55;96011.84;;;8.54;80.13
9281;BME280;4679;47.966;7.958;2022-11-18T10:06:57;96015.03;;;8.61;80.17
9281;BME280;4679;47.966;7.958;2022-11-18T10:09:15;96014.25;;;8.65;80.05
9281;BME280;4679;47.966;7.958;2022-11-18T10:11:22;96019.28;;;8.67;80.23
9281;BME280;4679;47.966;7.958;2022-11-18T10:13:32;96012.97;;;8.73;80.12
9281;BME280;4679;47.966;7.958;2022-11-18T10:15:38;96022.22;;;8.75;80.30
9281;BME280;4679;47.966;7.958;2022-11-18T10:17:52;96020.88;;;8.73;80.32
9281;BME280;4679;47.966;7.958;2022-11-18T10:20:14;96021.44;;;8.75;80.05
9281;BME280;4679;47.966;7.958;2022-11-18T10:22:23;96025.66;;;8.76;80.09
9281;BME280;4679;47.966;7.958;2022-11-18T10:24:31;96023.56;;;8.78;80.53
9281;BME280;4679;47.966;7.958;2022-11-18T10:26:37;96024.66;;;8.82;80.57
9281;BME280;4679;47.966;7.958;2022-11-18T10:28:40;96030.97;;;8.86;80.29
9281;BME280;4679;47.966;7.958;2022-11-18T10:30:41;96026.53;;;8.92;79.77
9281;BME280;4679;47.966;7.958;2022-11-18T10:32:57;96022.84;;;8.98;80.51
9281;BME280;4679;47.966;7.958;2022-11-18T10:34:59;96027.88;;;9.04;79.91
9281;BME280;4679;47.966;7.958;2022-11-18T10:37:04;96030.00;;;9.07;79.90
9281;BME280;4679;47.966;7.958;2022-11-18T10:39:11;96030.81;;;9.08;80.37
9281;BME280;4679;47.966;7.958;2022-11-18T10:41:16;96026.31;;;9.08;80.56
9281;BME280;4679;47.966;7.958;2022-11-18T10:43:41;96030.81;;;9.08;80.16
9281;BME280;4679;47.966;7.958;2022-11-18T10:45:44;96034.25;;;9.08;80.71
9281;BME280;4679;47.966;7.958;2022-11-18T10:47:56;96033.72;;;9.06;80.68
9281;BME280;4679;47.966;7.958;2022-11-18T10:49:59;96039.50;;;9.03;80.29
9281;BME280;4679;47.966;7.958;2022-11-18T10:52:08;96039.25;;;9.00;80.52
9281;BME280;4679;47.966;7.958;2022-11-18T10:54:14;96036.63;;;9.00;80.74
9281;BME280;4679;47.966;7.958;2022-11-18T10:56:16;96042.69;;;9.00;80.74
9281;BME280;4679;47.966;7.958;2022-11-18T10:58:19;96041.91;;;9.00;80.67
9281;BME280;4679;47.966;7.958;2022-11-18T11:00:36;96041.91;;;9.00;80.50
9281;BME280;4679;47.966;7.958;2022-11-18T11:02:39;96039.50;;;8.98;80.99
9281;BME280;4679;47.966;7.958;2022-11-18T11:04:42;96043.75;;;8.99;81.16
9281;BME280;4679;47.966;7.958;2022-11-18T11:06:44;96043.75;;;8.99;80.40
9281;BME280;4679;47.966;7.958;2022-11-18T11:08:49;96036.31;;;9.01;80.42
9281;BME280;4679;47.966;7.958;2022-11-18T11:10:54;96038.22;;;9.01;80.66
9281;BME280;4679;47.966;7.958;2022-11-18T11:12:59;96043.22;;;9.02;80.64
9281;BME280;4679;47.966;7.958;2022-11-18T11:15:04;96027.09;;;9.04;81.13
9281;BME280;4679;47.966;7.958;2022-11-18T11:17:12;96036.59;;;9.05;80.79
9281;BME280;4679;47.966;7.958;2022-11-18T11:19:17;96026.06;;;9.10;80.91
9281;BME280;4679;47.966;7.958;2022-11-18T11:21:21;96026.34;;;9.13;80.30
9281;BME280;4679;47.966;7.958;2022-11-18T11:23:24;96030.81;;;9.18;80.35
9281;BME280;4679;47.966;7.958;2022-11-18T11:25:32;96023.72;;;9.34;80.34
9281;BME280;4679;47.966;7.958;2022-11-18T11:27:42;96031.66;;;9.34;80.47
9281;BME280;4679;47.966;7.958;2022-11-18T11:30:04;96033.00;;;9.31;80.95
9281;BME280;4679;47.966;7.958;2022-11-18T11:32:14;96027.41;;;9.33;80.59
9281;BME280;4679;47.966;7.958;2022-11-18T11:34:25;96034.84;;;9.31;80.23
9281;BME280;4679;47.966;7.958;2022-11-18T11:36:41;96037.22;;;9.27;80.67
9281;BME280;4679;47.966;7.958;2022-11-18T11:38:54;96042.75;;;9.26;80.33
9281;BME280;4679;47.966;7.958;2022-11-18T11:41:05;96036.41;;;9.22;80.95
9281;BME280;4679;47.966;7.958;2022-11-18T11:43:28;96044.59;;;9.20;81.04
9281;BME280;4679;47.966;7.958;2022-11-18T11:45:40;96036.13;;;9.18;80.81
9281;BME280;4679;47.966;7.958;2022-11-18T11:47:59;96043.78;;;9.20;80.84
9281;BME280;4679;47.966;7.958;2022-11-18T11:50:12;96044.06;;;9.13;80.58
9281;BME280;4679;47.966;7.958;2022-11-18T11:52:26;96040.88;;;9.11;81.38
9281;BME280;4679;47.966;7.958;2022-11-18T11:54:38;96040.34;;;9.09;80.67
9281;BME280;4679;47.966;7.958;2022-11-18T11:56:52;96039.53;;;9.08;81.05
9281;BME280;4679;47.966;7.958;2022-11-18T11:59:14;96043.25;;;9.17;80.63
9281;BME280;4679;47.966;7.958;2022-11-18T12:01:21;96047.53;;;9.24;80.31
9281;BME280;4679;47.966;7.958;2022-11-18T12:03:43;96044.88;;;9.34;80.60
9281;BME280;4679;47.966;7.958;2022-11-18T12:05:46;96044.94;;;9.44;80.00
9281;BME280;4679;47.966;7.958;2022-11-18T12:07:51;96052.84;;;9.49;80.51
9281;BME280;4679;47.966;7.958;2022-11-18T12:10:06;96048.63;;;9.63;79.90
9281;BME280;4679;47.966;7.958;2022-11-18T12:12:17;96057.38;;;9.59;79.65
9281;BME280;4679;47.966;7.958;2022-11-18T12:14:39;96051.81;;;9.65;79.45
9281;BME280;4679;47.966;7.958;2022-11-18T12:16:50;96051.56;;;9.67;80.18
9281;BME280;4679;47.966;7.958;2022-11-18T12:18:57;96050.22;;;9.64;79.91
9281;BME280;4679;47.966;7.958;2022-11-18T12:21:00;96055.78;;;9.63;80.35
9281;BME280;4679;47.966;7.958;2022-11-18T12:23:08;96053.13;;;9.63;80.32
9281;BME280;4679;47.966;7.958;2022-11-18T12:27:58;96055.00;;;9.67;79.78
9281;BME280;4679;47.966;7.958;2022-11-18T12:30:00;96057.13;;;9.65;80.21
9281;BME280;4679;47.966;7.958;2022-11-18T12:32:22;96060.03;;;9.64;80.09
9281;BME280;4679;47.966;7.958;2022-11-18T12:34:31;96059.75;;;9.65;79.79
9281;BME280;4679;47.966;7.958;2022-11-18T12:36:36;96059.53;;;9.62;80.41
9281;BME280;4679;47.966;7.958;2022-11-18T12:38:39;96058.72;;;9.61;80.45
9281;BME280;4679;47.966;7.958;2022-11-18T12:40:42;96065.06;;;9.60;79.82
9281;BME280;4679;47.966;7.958;2022-11-18T12:42:45;96064.00;;;9.56;79.59
9281;BME280;4679;47.966;7.958;2022-11-18T12:47:56;96059.75;;;9.55;80.01
9281;BME280;4679;47.966;7.958;2022-11-18T12:50:09;96068.50;;;9.56;79.46
9281;BME280;4679;47.966;7.958;2022-11-18T12:54:47;96068.50;;;9.45;79.74
9281;BME280;4679;47.966;7.958;2022-11-18T12:56:50;96061.88;;;9.43;79.40
9281;BME280;4679;47.966;7.958;2022-11-18T12:58:53;96069.28;;;9.41;79.56
9281;BME280;4679;47.966;7.958;2022-11-18T13:01:06;96061.31;;;9.36;80.34
9281;BME280;4679;47.966;7.958;2022-11-18T13:03:09;96071.63;;;9.32;80.10
9281;BME280;4679;47.966;7.958;2022-11-18T13:05:19;96064.75;;;9.31;79.71
9281;BME280;4679;47.966;7.958;2022-11-18T13:07:21;96070.06;;;9.31;80.41
9281;BME280;4679;47.966;7.958;2022-11-18T13:09:41;96062.34;;;9.35;79.90
9281;BME280;4679;47.966;7.958;2022-11-18T13:11:46;96068.19;;;9.37;79.56
9281;BME280;4679;47.966;7.958;2022-11-18T13:13:51;96063.47;;;9.44;79.73
9281;BME280;4679;47.966;7.958;2022-11-18T13:16:17;96069.53;;;9.49;79.35
9281;BME280;4679;47.966;7.958;2022-11-18T13:18:50;96064.78;;;9.51;78.86
9281;BME280;4679;47.966;7.958;2022-11-18T13:20:55;96064.00;;;9.56;78.70
9281;BME280;4679;47.966;7.958;2022-11-18T13:22:59;96065.06;;;9.60;78.94
9281;BME280;4679;47.966;7.958;2022-11-18T13:25:24;96071.16;;;9.61;79.07
9281;BME280;4679;47.966;7.958;2022-11-18T13:27:34;96067.47;;;9.62;78.36
9281;BME280;4679;47.966;7.958;2022-11-18T13:29:44;96063.47;;;9.64;78.52
9281;BME280;4679;47.966;7.958;2022-11-18T13:31:56;96054.22;;;9.67;78.85
9281;BME280;4679;47.966;7.958;2022-11-18T13:34:07;96057.66;;;9.67;78.96
9281;BME280;4679;47.966;7.958;2022-11-18T13:36:15;96060.03;;;9.69;78.47
9281;BME280;4679;47.966;7.958;2022-11-18T13:38:20;96061.38;;;9.71;78.10
9281;BME280;4679;47.966;7.958;2022-11-18T13:40:25;96064.81;;;9.72;78.56
9281;BME280;4679;47.966;7.958;2022-11-18T13:42:29;96062.44;;;9.70;78.62
9281;BME280;4679;47.966;7.958;2022-11-18T13:44:33;96062.69;;;9.69;78.18
9281;BME280;4679;47.966;7.958;2022-11-18T13:46:35;96065.59;;;9.67;78.56
9281;BME280;4679;47.966;7.958;2022-11-18T13:48:43;96067.72;;;9.65;78.38
9281;BME280;4679;47.966;7.958;2022-11-18T13:50:51;96066.13;;;9.64;78.83
9281;BME280;4679;47.966;7.958;2022-11-18T13:53:04;96056.56;;;9.63;78.55
9281;BME280;4679;47.966;7.958;2022-11-18T13:55:11;96069.03;;;9.63;78.22
9281;BME280;4679;47.966;7.958;2022-11-18T13:57:16;96062.69;;;9.64;78.66
9281;BME280;4679;47.966;7.958;2022-11-18T13:59:22;96066.38;;;9.58;78.34
9281;BME280;4679;47.966;7.958;2022-11-18T14:01:25;96061.88;;;9.53;78.05
9281;BME280;4679;47.966;7.958;2022-11-18T14:03:31;96066.09;;;9.49;78.56
9281;BME280;4679;47.966;7.958;2022-11-18T14:05:35;96067.44;;;9.46;78.42
9281;BME280;4679;47.966;7.958;2022-11-18T14:07:39;96075.91;;;9.43;77.97
9281;BME280;4679;47.966;7.958;2022-11-18T14:09:51;96078.53;;;9.38;78.29
9281;BME280;4679;47.966;7.958;2022-11-18T14:11:59;96073.22;;;9.38;78.02
9281;BME280;4679;47.966;7.958;2022-11-18T14:14:01;96075.34;;;9.36;78.53
9281;BME280;4679;47.966;7.958;2022-11-18T14:16:28;96082.22;;;9.37;78.57
9281;BME280;4679;47.966;7.958;2022-11-18T14:18:32;96077.72;;;9.38;78.54
9281;BME280;4679;47.966;7.958;2022-11-18T14:20:35;96083.03;;;9.38;77.92
9281;BME280;4679;47.966;7.958;2022-11-18T14:22:41;96088.06;;;9.39;78.10
9281;BME280;4679;47.966;7.958;2022-11-18T14:24:53;96093.63;;;9.38;78.29
9281;BME280;4679;47.966;7.958;2022-11-18T14:26:55;96090.97;;;9.38;77.75
9281;BME280;4679;47.966;7.958;2022-11-18T14:28:58;96093.88;;;9.36;78.62
9281;BME280;4679;47.966;7.958;2022-11-18T14:31:03;96096.78;;;9.35;78.42
9281;BME280;4679;47.966;7.958;2022-11-18T14:33:15;96102.31;;;9.33;78.00
9281;BME280;4679;47.966;7.958;2022-11-18T14:35:18;96093.09;;;9.31;77.74
9281;BME280;4679;47.966;7.958;2022-11-18T14:37:19;96099.44;;;9.30;77.52
9281;BME280;4679;47.966;7.958;2022-11-18T14:39:24;96101.53;;;9.28;78.29
9281;BME280;4679;47.966;7.958;2022-11-18T14:41:28;96105.25;;;9.27;77.95
9281;BME280;4679;47.966;7.958;2022-11-18T14:43:48;96112.63;;;9.25;77.94
9281;BME280;4679;47.966;7.958;2022-11-18T14:45:52;96116.56;;;9.17;77.94
9281;BME280;4679;47.966;7.958;2022-11-18T14:47:55;96113.91;;;9.12;77.92
9281;BME280;4679;47.966;7.958;2022-11-18T14:49:56;96110.41;;;9.01;77.94
9281;BME280;4679;47.966;7.958;2022-11-18T14:51:58;96109.34;;;8.97;78.86
9281;BME280;4679;47.966;7.958;2022-11-18T14:54:01;96107.19;;;8.89;78.94
9281;BME280;4679;47.966;7.958;2022-11-18T14:56:11;96112.47;;;8.84;78.67
9281;BME280;4679;47.966;7.958;2022-11-18T14:58:14;96109.03;;;8.84;78.91
9281;BME280;4679;47.966;7.958;2022-11-18T15:00:17;96114.28;;;8.78;78.90
9281;BME280;4679;47.966;7.958;2022-11-18T15:02:19;96116.63;;;8.75;79.09
9281;BME280;4679;47.966;7.958;2022-11-18T15:04:20;96110.81;;;8.73;78.95
9281;BME280;4679;47.966;7.958;2022-11-18T15:06:22;96121.38;;;8.73;78.65
9281;BME280;4679;47.966;7.958;2022-11-18T15:08:25;96112.41;;;8.74;79.42
9281;BME280;4679;47.966;7.958;2022-11-18T15:10:26;96114.78;;;8.70;78.78
9281;BME280;4679;47.966;7.958;2022-11-18T15:12:30;96117.63;;;8.64;78.89
9281;BME280;4679;47.966;7.958;2022-11-18T15:14:31;96117.34;;;8.55;79.22
9281;BME280;4679;47.966;7.958;2022-11-18T15:16:34;96115.44;;;8.51;79.27
9281;BME280;4679;47.966;7.958;2022-11-18T15:18:36;96120.19;;;8.49;78.88
9281;BME280;4679;47.966;7.958;2022-11-18T15:20:37;96124.63;;;8.43;79.50
9281;BME280;4679;47.966;7.958;2022-11-18T15:22:39;96118.31;;;8.44;79.93
9281;BME280;4679;47.966;7.958;2022-11-18T15:24:41;96132.00;;;8.41;79.50
9281;BME280;4679;47.966;7.958;2022-11-18T15:26:44;96132.53;;;8.38;79.78
9281;BME280;4679;47.966;7.958;2022-11-18T15:28:49;96133.34;;;8.38;79.75
9281;BME280;4679;47.966;7.958;2022-11-18T15:30:51;96131.22;;;8.40;79.68
9281;BME280;4679;47.966;7.958;2022-11-18T15:32:52;96130.44;;;8.40;79.37
9281;BME280;4679;47.966;7.958;2022-11-18T15:34:54;96136.00;;;8.38;79.48
9281;BME280;4679;47.966;7.958;2022-11-18T15:36:56;96135.69;;;8.35;79.90
9281;BME280;4679;47.966;7.958;2022-11-18T15:38:57;96133.03;;;8.35;79.88
9281;BME280;4679;47.966;7.958;2022-11-18T15:40:59;96130.41;;;8.35;79.78
9281;BME280;4679;47.966;7.958;2022-11-18T15:43:01;96133.84;;;8.35;80.02
9281;BME280;4679;47.966;7.958;2022-11-18T15:45:05;96134.66;;;8.36;79.90
9281;BME280;4679;47.966;7.958;2022-11-18T15:47:07;96136.50;;;8.35;79.79
9281;BME280;4679;47.966;7.958;2022-11-18T15:49:11;96144.97;;;8.37;80.10
9281;BME280;4679;47.966;7.958;2022-11-18T15:51:13;96143.91;;;8.38;79.88
9281;BME280;4679;47.966;7.958;2022-11-18T15:53:15;96139.94;;;8.36;79.96
9281;BME280;4679;47.966;7.958;2022-11-18T15:55:17;96147.84;;;8.36;80.07
9281;BME280;4679;47.966;7.958;2022-11-18T15:57:18;96147.84;;;8.36;79.94
9281;BME280;4679;47.966;7.958;2022-11-18T15:59:20;96144.91;;;8.32;80.08
9281;BME280;4679;47.966;7.958;2022-11-18T16:01:24;96140.44;;;8.33;80.00
9281;BME280;4679;47.966;7.958;2022-11-18T16:03:26;96149.63;;;8.30;80.11
9281;BME280;4679;47.966;7.958;2022-11-18T16:05:28;96149.94;;;8.34;80.17
9281;BME280;4679;47.966;7.958;2022-11-18T16:07:29;96149.41;;;8.32;80.09
9281;BME280;4679;47.966;7.958;2022-11-18T16:09:31;96158.13;;;8.32;80.13
9281;BME280;4679;47.966;7.958;2022-11-18T16:11:51;96160.03;;;8.37;79.98
9281;BME280;4679;47.966;7.958;2022-11-18T16:14:08;96155.53;;;8.37;79.98
9281;BME280;4679;47.966;7.958;2022-11-18T16:16:17;96162.41;;;8.38;80.03
9281;BME280;4679;47.966;7.958;2022-11-18T16:18:20;96164.00;;;8.39;80.02
9281;BME280;4679;47.966;7.958;2022-11-18T16:20:22;96160.28;;;8.40;79.76
9281;BME280;4679;47.966;7.958;2022-11-18T16:22:23;96159.78;;;8.38;79.79
9281;BME280;4679;47.966;7.958;2022-11-18T16:24:27;96162.94;;;8.40;79.91
9281;BME280;4679;47.966;7.958;2022-11-18T16:26:29;96157.13;;;8.38;79.62
9281;BME280;4679;47.966;7.958;2022-11-18T16:28:31;96162.94;;;8.40;79.74
9281;BME280;4679;47.966;7.958;2022-11-18T16:30:33;96166.66;;;8.39;79.73
9281;BME280;4679;47.966;7.958;2022-11-18T16:32:52;96159.78;;;8.38;79.63
9281;BME280;4679;47.966;7.958;2022-11-18T16:34:55;96167.19;;;8.41;79.67
9281;BME280;4679;47.966;7.958;2022-11-18T16:36:58;96167.19;;;8.41;79.40
9281;BME280;4679;47.966;7.958;2022-11-18T16:39:05;96167.19;;;8.41;79.51
9281;BME280;4679;47.966;7.958;2022-11-18T16:41:08;96166.66;;;8.39;79.46
9281;BME280;4679;47.966;7.958;2022-11-18T16:43:24;96169.31;;;8.39;79.15
9281;BME280;4679;47.966;7.958;2022-11-18T16:45:26;96176.94;;;8.41;79.34
9281;BME280;4679;47.966;7.958;2022-11-18T16:47:27;96168.22;;;8.40;79.60
9281;BME280;4679;47.966;7.958;2022-11-18T16:49:29;96177.50;;;8.43;79.37
9281;BME280;4679;47.966;7.958;2022-11-18T16:51:33;96180.16;;;8.43;79.37
9281;BME280;4679;47.966;7.958;2022-11-18T16:53:35;96179.59;;;8.41;79.10
9281;BME280;4679;47.966;7.958;2022-11-18T16:55:37;96177.22;;;8.39;79.43
9281;BME280;4679;47.966;7.958;2022-11-18T16:57:39;96177.47;;;8.38;79.67
9281;BME280;4679;47.966;7.958;2022-11-18T16:59:40;96192.25;;;8.34;79.40
9281;BME280;4679;47.966;7.958;2022-11-18T17:01:42;96179.75;;;8.29;79.37
9281;BME280;4679;47.966;7.958;2022-11-18T17:03:44;96186.97;;;8.34;79.51
9281;BME280;4679;47.966;7.958;2022-11-18T17:05:45;96178.78;;;8.40;79.21
9281;BME280;4679;47.966;7.958;2022-11-18T17:07:48;96174.84;;;8.43;79.47
9281;BME280;4679;47.966;7.958;2022-11-18T17:09:50;96180.91;;;8.38;79.16
9281;BME280;4679;47.966;7.958;2022-11-18T17:11:53;96198.31;;;8.34;79.29
9281;BME280;4679;47.966;7.958;2022-11-18T17:13:55;96194.09;;;8.33;79.43
9281;BME280;4679;47.966;7.958;2022-11-18T17:15:57;96192.78;;;8.36;79.25
9281;BME280;4679;47.966;7.958;2022-11-18T17:17:58;96193.84;;;8.35;79.03
9281;BME280;4679;47.966;7.958;2022-11-18T17:20:00;96194.09;;;8.33;79.15
9281;BME280;4679;47.966;7.958;2022-11-18T17:22:03;96195.94;;;8.33;78.97
9281;BME280;4679;47.966;7.958;2022-11-18T17:24:07;96190.88;;;8.31;79.27
9281;BME280;4679;47.966;7.958;2022-11-18T17:26:11;96196.41;;;8.30;78.91
9281;BME280;4679;47.966;7.958;2022-11-18T17:28:13;96201.44;;;8.31;78.75
9281;BME280;4679;47.966;7.958;2022-11-18T17:30:15;96203.06;;;8.32;78.99
9281;BME280;4679;47.966;7.958;2022-11-18T17:32:17;96195.94;;;8.33;78.83
9281;BME280;4679;47.966;7.958;2022-11-18T17:34:19;96207.44;;;8.22;79.14
9281;BME280;4679;47.966;7.958;2022-11-18T17:36:22;96213.38;;;8.07;79.49
9281;BME280;4679;47.966;7.958;2022-11-18T17:38:24;96205.09;;;7.98;79.51
9281;BME280;4679;47.966;7.958;2022-11-18T17:40:27;96211.41;;;7.97;80.09
9281;BME280;4679;47.966;7.958;2022-11-18T17:42:29;96214.84;;;7.98;80.03
9281;BME280;4679;47.966;7.958;2022-11-18T17:44:31;96212.53;;;8.01;79.99
9281;BME280;4679;47.966;7.958;2022-11-18T17:46:33;96210.94;;;8.00;80.00
9281;BME280;4679;47.966;7.958;2022-11-18T17:48:35;96208.03;;;8.02;79.96
9281;BME280;4679;47.966;7.958;2022-11-18T17:50:36;96213.31;;;8.02;80.23
9281;BME280;4679;47.966;7.958;2022-11-18T17:52:38;96212.97;;;7.93;80.07
9281;BME280;4679;47.966;7.958;2022-11-18T17:54:40;96219.31;;;7.92;80.24
9281;BME280;4679;47.966;7.958;2022-11-18T17:56:43;96210.88;;;7.95;80.12
9281;BME280;4679;47.966;7.958;2022-11-18T17:58:45;96218.28;;;7.98;80.79
9281;BME280;4679;47.966;7.958;2022-11-18T18:00:48;96218.19;;;7.88;80.49
9281;BME280;4679;47.966;7.958;2022-11-18T18:02:50;96214.16;;;7.81;81.10
9281;BME280;4679;47.966;7.958;2022-11-18T18:04:52;96232.09;;;7.79;81.06
9281;BME280;4679;47.966;7.958;2022-11-18T18:06:54;96229.75;;;7.82;80.96
9281;BME280;4679;47.966;7.958;2022-11-18T18:08:57;96228.47;;;7.85;81.56
9281;BME280;4679;47.966;7.958;2022-11-18T18:10:59;96229.50;;;7.84;80.91